Chita-Kadala Airport
UIAA : now visible

Airfield :











YOU CAN JOIN US ON...

 
LOGIN :

Register | Disclaimer

   EN    FR    IT 

 









Legend :    VFR   Marginal VFR   IFR   Intensive IFR   Very Intensive IFR
Visi :
Ceiling :
>= 8 km
>= 3000ft
5 to 8 km
1000 to 3000 ft
1500m to 5 km
500 to 1000 ft
800 to 1500m
200 to 500 ft
< 800m
< 200 ft
Symbols :   Thunderstorms  Fog  Heavy snow  Heavy precipitations  Wind > 20 kt






- Airport Elevation : 2272 ft
- IATA code : HTA


UIAA - Chita-Kadala

CURRENT METAR :
  • 230130Z 06002MPS 9999 NSC 26/10 Q1005 R29/CLRD70 NOSIG RMK QFE695/0927

EXPIRED METARs :
  • 230100Z VRB01MPS 9999 NSC 24/10 Q1005 R29/CLRD70 NOSIG RMK QFE695/0927
  • 230030Z 07001MPS 9999 NSC 21/10 Q1005 R29/CLRD70 NOSIG RMK QFE696/0928
  • 230000Z 07001MPS 9999 NSC 20/09 Q1005 R29/70D NOSIG RMK QFE695/0927
  • 222330Z 05002MPS 9999 NSC 18/09 Q1005 R29/70D NOSIG RMK QFE696/0928
  • 222300Z VRB01MPS 9999 NSC 17/09 Q1005 R29/CLRD70 NOSIG RMK QFE696/0928
  • 222230Z 00000MPS 9999 NSC 16/09 Q1005 R29/CLRD70 NOSIG RMK QFE695/0927
  • 222200Z 00000MPS 9999 NSC 15/08 Q1005 R29/70D NOSIG RMK QFE695/0927
  • 222130Z 35002MPS 9999 NSC 14/06 Q1005 R29/CLRD70 NOSIG RMK QFE695/0927
  • 222100Z 34001MPS 9999 NSC 12/07 Q1004 R29/CLRD70 NOSIG RMK QFE695/0927

TAF TAF UIAA
Valid from the 23 at 00:00 until the 24 at 00:00 UTC


222300Z 2300/2324 08003G08MPS 9999 SCT040CB TX30/2305Z TN15/2321Z
UIAA FIR / Asia



MET'MAP, your aeronautical weather chart ! - Copyright ORBIFLY December 2007 - Disclaimer

ORBIFLY MET'MAP TEAM :

Programming & Development : Alexandra Zaïnal
Original concept : Baudouin d'Aumeries
Technical & hardware support : Manuel Goepfert
Assistance : Marc-Olivier Méhu




SOURCES & CREDITS :

   NOAA       Earth
Advisory